createdAt,value
2022-12-31T00:02:13.247Z,10.40
2022-12-31T00:07:17.982Z,9.10
2022-12-31T00:12:22.951Z,15.13
2022-12-31T00:17:26.964Z,9.80
2022-12-31T00:22:28.687Z,10.23
2022-12-31T00:27:35.848Z,10.93
2022-12-31T00:32:37.529Z,7.28
2022-12-31T00:37:40.228Z,10.20
2022-12-31T00:42:43.039Z,13.88
2022-12-31T00:47:49.432Z,14.88
2022-12-31T00:52:53.542Z,9.35
2022-12-31T00:57:57.986Z,11.57
2022-12-31T01:02:59.805Z,7.25
2022-12-31T01:08:03.913Z,11.80
2022-12-31T01:13:07.990Z,8.82
2022-12-31T01:18:11.982Z,10.85
2022-12-31T01:23:18.648Z,10.75
2022-12-31T01:28:20.334Z,13.80
2022-12-31T01:33:24.770Z,9.77
2022-12-31T01:38:26.894Z,12.73
2022-12-31T01:44:21.525Z,12.13
2022-12-31T01:49:43.317Z,14.63
2022-12-31T01:54:48.672Z,11.30
2022-12-31T01:59:52.719Z,17.30
2022-12-31T02:04:55.945Z,8.00
2022-12-31T02:10:04.655Z,10.50
2022-12-31T02:15:09.596Z,11.27
2022-12-31T02:20:13.526Z,12.30
2022-12-31T02:25:39.416Z,9.93
2022-12-31T02:30:42.606Z,7.60
2022-12-31T02:35:54.762Z,8.25
2022-12-31T02:40:59.367Z,6.57
2022-12-31T02:46:18.516Z,6.38
2022-12-31T02:51:46.767Z,5.70
2022-12-31T02:56:57.505Z,7.80
2022-12-31T03:02:16.776Z,6.93
2022-12-31T03:07:32.215Z,7.30
2022-12-31T03:12:51.474Z,7.53
2022-12-31T03:18:00.081Z,9.35
2022-12-31T03:23:08.077Z,8.07
2022-12-31T03:28:12.254Z,8.55
2022-12-31T03:33:16.174Z,11.88
2022-12-31T03:38:18.921Z,12.18
2022-12-31T03:43:20.765Z,12.27
2022-12-31T03:48:28.446Z,9.70
2022-12-31T03:53:34.807Z,10.30
2022-12-31T03:58:37.840Z,13.70
2022-12-31T04:03:42.040Z,12.85
2022-12-31T04:08:45.448Z,16.25
2022-12-31T04:13:48.185Z,10.38
2022-12-31T04:18:50.300Z,10.40
2022-12-31T04:23:59.163Z,10.35
2022-12-31T04:29:01.044Z,7.78
2022-12-31T04:34:06.897Z,12.15
2022-12-31T04:39:11.591Z,8.30
2022-12-31T04:44:13.590Z,11.20
2022-12-31T04:49:19.765Z,9.65
2022-12-31T04:54:22.264Z,8.55
2022-12-31T04:59:26.291Z,9.30
2022-12-31T05:04:28.043Z,10.05
2022-12-31T05:09:31.383Z,10.70
2022-12-31T05:14:40.215Z,7.50
2022-12-31T05:19:46.337Z,8.82
2022-12-31T05:24:48.045Z,4.85
2022-12-31T05:29:49.926Z,5.88
2022-12-31T05:34:57.158Z,5.10
2022-12-31T05:40:04.171Z,6.47
2022-12-31T05:45:06.896Z,4.77
2022-12-31T05:50:13.372Z,5.95
2022-12-31T05:55:17.635Z,8.18
2022-12-31T06:00:21.963Z,6.82
2022-12-31T06:05:26.587Z,2.70
2022-12-31T06:10:28.672Z,4.00
2022-12-31T06:15:36.564Z,9.33
2022-12-31T06:20:38.557Z,4.30
2022-12-31T06:25:40.436Z,5.63
2022-12-31T06:30:42.183Z,6.17
2022-12-31T06:35:46.154Z,3.47
2022-12-31T06:40:52.722Z,5.47
2022-12-31T06:46:00.481Z,5.93
2022-12-31T06:51:11.888Z,6.37
2022-12-31T06:56:31.254Z,5.53
2022-12-31T07:01:44.119Z,6.17
2022-12-31T07:07:29.361Z,7.17
2022-12-31T07:12:52.960Z,9.20
2022-12-31T07:18:01.037Z,5.87
2022-12-31T07:23:03.693Z,7.53
2022-12-31T07:28:15.470Z,8.10
2022-12-31T07:33:59.484Z,7.63
2022-12-31T07:39:15.605Z,4.80
2022-12-31T07:44:39.195Z,5.17
2022-12-31T07:49:46.191Z,4.30
2022-12-31T07:54:50.919Z,3.37
2022-12-31T08:00:02.113Z,4.95
2022-12-31T08:05:42.705Z,4.07
2022-12-31T08:11:08.667Z,4.00
2022-12-31T08:16:13.695Z,4.30
2022-12-31T08:21:46.029Z,1.77
2022-12-31T08:26:56.831Z,3.33
2022-12-31T08:32:06.499Z,2.73
2022-12-31T08:37:14.003Z,3.57
2022-12-31T08:42:40.451Z,2.35
2022-12-31T08:48:00.133Z,2.57
2022-12-31T08:53:02.720Z,3.80
2022-12-31T08:58:42.314Z,11.07
2022-12-31T09:04:04.183Z,3.33
2022-12-31T09:09:16.577Z,4.40
2022-12-31T09:14:44.033Z,5.30
2022-12-31T09:19:46.617Z,4.27
2022-12-31T09:24:53.132Z,5.57
2022-12-31T09:30:13.247Z,6.67
2022-12-31T09:35:53.896Z,6.77
2022-12-31T09:41:17.402Z,7.60
2022-12-31T09:46:37.956Z,10.20
2022-12-31T09:51:57.301Z,6.33
2022-12-31T09:57:24.267Z,5.67
2022-12-31T10:02:29.766Z,7.47
2022-12-31T10:07:31.610Z,8.07
2022-12-31T10:12:55.037Z,9.77
2022-12-31T10:18:20.438Z,6.30
2022-12-31T10:23:49.658Z,5.10
2022-12-31T10:29:22.599Z,4.23
2022-12-31T10:34:34.077Z,3.05
2022-12-31T10:39:41.825Z,3.20
2022-12-31T10:45:06.467Z,3.50
2022-12-31T10:50:23.365Z,3.00
2022-12-31T10:55:47.652Z,5.85
2022-12-31T11:01:24.410Z,4.82
2022-12-31T11:06:41.292Z,2.90
2022-12-31T11:12:08.115Z,6.72
2022-12-31T11:17:28.806Z,2.25
2022-12-31T11:23:09.538Z,4.15
2022-12-31T11:29:02.083Z,4.95
2022-12-31T11:34:26.322Z,1.83
2022-12-31T11:39:54.834Z,2.45
2022-12-31T11:45:11.757Z,2.50
2022-12-31T11:50:13.487Z,2.75
2022-12-31T11:55:36.682Z,2.90
2022-12-31T12:00:39.056Z,4.55
2022-12-31T12:05:43.577Z,3.83
2022-12-31T12:10:50.228Z,4.90
2022-12-31T12:16:00.037Z,5.63
2022-12-31T12:21:05.854Z,4.78
2022-12-31T12:26:10.078Z,5.78
2022-12-31T12:31:23.975Z,4.68
2022-12-31T12:36:26.024Z,5.53
2022-12-31T12:41:30.362Z,5.72
2022-12-31T12:46:56.206Z,10.63
2022-12-31T12:52:19.228Z,7.95
2022-12-31T12:57:25.277Z,11.40
2022-12-31T13:02:27.242Z,4.97
2022-12-31T13:07:58.528Z,4.53
2022-12-31T13:13:25.442Z,1.38
2022-12-31T13:18:43.073Z,4.22
2022-12-31T13:23:57.287Z,3.35
2022-12-31T13:29:04.252Z,2.85
2022-12-31T13:34:13.733Z,3.17
2022-12-31T13:39:32.514Z,3.13
2022-12-31T13:44:42.085Z,4.10
2022-12-31T13:49:50.393Z,1.42
2022-12-31T13:54:58.106Z,2.45
2022-12-31T14:00:02.457Z,4.72
2022-12-31T14:05:12.448Z,3.47
2022-12-31T14:10:17.238Z,2.70
2022-12-31T14:15:31.983Z,6.07
2022-12-31T14:20:48.162Z,4.05
2022-12-31T14:26:03.343Z,7.53
2022-12-31T14:31:13.252Z,7.30
2022-12-31T14:36:22.168Z,6.80
2022-12-31T14:41:33.152Z,7.80
2022-12-31T14:44:56.148Z,8.15
2022-12-31T14:46:20.582Z,4.38
2022-12-31T14:47:36.997Z,6.88
2022-12-31T14:49:18.673Z,7.60
2022-12-31T14:50:23.447Z,8.48
2022-12-31T14:51:29.779Z,6.95
2022-12-31T14:52:34.155Z,8.98
2022-12-31T14:53:36.844Z,10.63
2022-12-31T14:54:43.185Z,5.47
2022-12-31T14:55:56.970Z,12.75
2022-12-31T14:57:09.991Z,7.78
2022-12-31T14:58:28.075Z,8.52
2022-12-31T14:59:40.093Z,9.48
2022-12-31T15:00:54.448Z,9.32
2022-12-31T15:01:59.116Z,11.10
2022-12-31T15:03:06.057Z,8.02
2022-12-31T15:04:14.660Z,8.85
2022-12-31T15:05:18.543Z,7.85
2022-12-31T15:06:24.951Z,9.15
2022-12-31T15:07:41.283Z,10.30
2022-12-31T15:09:08.131Z,10.02
2022-12-31T15:10:10.581Z,10.40
2022-12-31T15:11:22.835Z,7.07
2022-12-31T15:12:46.978Z,11.48
2022-12-31T15:14:14.217Z,6.38
2022-12-31T15:15:42.493Z,11.27
2022-12-31T15:17:17.953Z,6.40
2022-12-31T15:18:57.767Z,9.98
2022-12-31T15:20:14.927Z,5.95
2022-12-31T15:21:56.781Z,9.73
2022-12-31T15:22:58.939Z,8.25
2022-12-31T15:24:00.845Z,7.78
2022-12-31T15:25:04.579Z,7.75
2022-12-31T15:26:06.940Z,10.15
2022-12-31T15:27:31.696Z,9.00
2022-12-31T15:28:40.344Z,5.75
2022-12-31T15:29:43.938Z,9.27
2022-12-31T15:30:48.879Z,7.78
2022-12-31T15:31:53.472Z,7.53
2022-12-31T15:32:59.220Z,8.35
2022-12-31T15:34:04.492Z,8.30
2022-12-31T15:35:22.580Z,4.68
2022-12-31T15:36:26.673Z,5.85
2022-12-31T15:37:34.908Z,5.93
2022-12-31T15:38:38.082Z,7.63
2022-12-31T15:39:43.221Z,8.13
2022-12-31T15:40:49.642Z,6.65
2022-12-31T15:43:25.417Z,4.07
2022-12-31T15:44:54.149Z,6.85
2022-12-31T15:45:57.875Z,5.45
2022-12-31T15:47:35.920Z,10.55
2022-12-31T15:48:52.684Z,6.47
2022-12-31T15:49:56.345Z,6.32
2022-12-31T15:50:59.328Z,4.90
2022-12-31T15:52:04.059Z,5.35
2022-12-31T15:53:06.150Z,4.60
2022-12-31T15:54:24.391Z,6.07
2022-12-31T15:55:33.392Z,2.55
2022-12-31T15:56:40.903Z,3.85
2022-12-31T15:57:45.296Z,4.13
2022-12-31T15:58:48.243Z,4.13
2022-12-31T15:59:50.256Z,4.35
2022-12-31T16:01:16.163Z,6.03
2022-12-31T16:02:26.231Z,3.40
2022-12-31T16:03:34.374Z,6.50
2022-12-31T16:04:42.627Z,2.08
2022-12-31T16:05:48.259Z,6.82
2022-12-31T16:06:51.379Z,3.13
2022-12-31T16:07:58.132Z,7.38
2022-12-31T16:09:00.659Z,3.25
2022-12-31T16:10:08.537Z,6.38
2022-12-31T16:11:13.723Z,5.10
2022-12-31T16:12:21.193Z,6.50
2022-12-31T16:13:25.123Z,7.75
2022-12-31T16:14:35.934Z,5.82
2022-12-31T16:15:37.811Z,10.80
2022-12-31T16:16:39.908Z,9.73
2022-12-31T16:17:42.620Z,11.65
2022-12-31T16:18:44.424Z,8.52
2022-12-31T16:19:48.907Z,7.15
2022-12-31T16:20:51.927Z,10.88
2022-12-31T16:21:57.656Z,7.50
2022-12-31T16:23:05.516Z,9.82
2022-12-31T16:25:02.704Z,7.82
2022-12-31T16:26:02.761Z,5.88
2022-12-31T16:27:09.597Z,12.23
2022-12-31T16:28:19.564Z,9.48
2022-12-31T16:29:22.769Z,10.40
2022-12-31T16:30:27.425Z,5.47
2022-12-31T16:31:32.001Z,5.82
2022-12-31T16:32:38.848Z,32.10
2022-12-31T16:33:40.569Z,14.07
2022-12-31T16:34:47.116Z,14.82
2022-12-31T16:35:55.500Z,24.23
2022-12-31T16:37:00.685Z,17.00
2022-12-31T16:38:13.427Z,9.02
2022-12-31T16:39:27.694Z,5.57
2022-12-31T16:40:29.795Z,6.43
2022-12-31T16:41:43.731Z,8.40
2022-12-31T16:42:46.636Z,6.28
2022-12-31T16:43:49.388Z,10.88
2022-12-31T16:44:53.844Z,9.82
2022-12-31T16:46:06.610Z,6.30
2022-12-31T16:47:14.085Z,8.48
2022-12-31T16:48:17.417Z,9.40
2022-12-31T16:49:21.424Z,4.97
2022-12-31T16:50:29.067Z,6.95
2022-12-31T16:51:34.202Z,8.43
2022-12-31T16:52:38.310Z,7.22
2022-12-31T16:53:40.971Z,6.47
2022-12-31T16:54:46.980Z,8.18
2022-12-31T16:56:11.321Z,7.43
2022-12-31T16:57:21.072Z,6.13
2022-12-31T16:58:31.672Z,9.27
2022-12-31T16:59:35.367Z,8.07
2022-12-31T17:00:40.315Z,4.57
2022-12-31T17:01:42.602Z,5.35
2022-12-31T17:02:56.405Z,5.13
2022-12-31T17:04:05.148Z,4.65
2022-12-31T17:05:22.264Z,3.03
2022-12-31T17:06:28.411Z,4.70
2022-12-31T17:07:30.711Z,4.32
2022-12-31T17:08:55.505Z,8.68
2022-12-31T17:10:16.410Z,2.97
2022-12-31T17:11:32.432Z,4.03
2022-12-31T17:13:00.938Z,4.88
2022-12-31T17:14:07.488Z,6.50
2022-12-31T17:15:24.381Z,7.03
2022-12-31T17:16:26.756Z,11.10
2022-12-31T17:17:35.987Z,6.82
2022-12-31T17:18:38.821Z,5.22
2022-12-31T17:19:43.181Z,7.85
2022-12-31T17:20:45.203Z,5.53
2022-12-31T17:21:47.735Z,4.85
2022-12-31T17:22:50.109Z,5.53
2022-12-31T17:23:55.340Z,6.95
2022-12-31T17:25:03.140Z,7.82
2022-12-31T17:26:20.714Z,8.48
2022-12-31T17:27:22.480Z,10.25
2022-12-31T17:28:25.890Z,11.90
2022-12-31T17:29:32.444Z,13.55
2022-12-31T17:30:35.056Z,14.40
2022-12-31T17:31:43.288Z,11.10
2022-12-31T17:32:49.981Z,38.30
2022-12-31T17:33:54.264Z,15.98
2022-12-31T17:34:57.092Z,18.48
2022-12-31T17:36:23.592Z,24.23
2022-12-31T17:37:27.617Z,13.80
2022-12-31T17:38:32.078Z,13.30
2022-12-31T17:39:49.252Z,11.32
2022-12-31T17:40:53.726Z,8.02
2022-12-31T17:41:58.179Z,10.68
2022-12-31T17:43:05.936Z,9.43
2022-12-31T17:44:16.712Z,10.60
2022-12-31T17:45:20.954Z,11.75
2022-12-31T17:46:25.797Z,11.30
2022-12-31T17:47:39.299Z,11.43
2022-12-31T17:48:50.626Z,14.10
2022-12-31T17:49:53.556Z,13.02
2022-12-31T17:50:57.860Z,16.05
2022-12-31T17:51:59.615Z,20.80
2022-12-31T17:53:15.121Z,15.23
2022-12-31T17:54:18.041Z,15.30
2022-12-31T17:55:21.815Z,13.60
2022-12-31T17:56:25.569Z,13.95
2022-12-31T17:57:29.581Z,15.73
2022-12-31T17:58:52.633Z,15.10
2022-12-31T17:59:54.381Z,14.35
2022-12-31T18:01:01.806Z,19.50
2022-12-31T18:02:11.897Z,15.35
2022-12-31T18:03:15.950Z,20.98
2022-12-31T18:04:20.783Z,17.50
2022-12-31T18:05:26.101Z,20.90
2022-12-31T18:06:27.897Z,24.75
2022-12-31T18:07:29.635Z,20.17
2022-12-31T18:08:36.172Z,27.95
2022-12-31T18:09:40.252Z,17.20
2022-12-31T18:10:43.120Z,20.77
2022-12-31T18:11:45.226Z,16.00
2022-12-31T18:12:52.295Z,19.83
2022-12-31T18:13:54.478Z,13.45
2022-12-31T18:14:56.220Z,12.05
2022-12-31T18:15:59.037Z,17.00
2022-12-31T18:17:00.914Z,21.15
2022-12-31T18:18:32.625Z,16.38
2022-12-31T18:20:03.616Z,21.27
2022-12-31T18:21:00.746Z,20.02
2022-12-31T18:22:02.750Z,20.65
2022-12-31T18:23:05.618Z,17.95
2022-12-31T18:24:13.879Z,19.27
2022-12-31T18:25:21.595Z,25.15
2022-12-31T18:26:25.306Z,16.77
2022-12-31T18:27:34.937Z,15.35
2022-12-31T18:28:36.666Z,22.63
2022-12-31T18:29:40.759Z,24.60
2022-12-31T18:30:43.627Z,22.23
2022-12-31T18:31:51.578Z,24.77
2022-12-31T18:32:53.840Z,29.90
2022-12-31T18:34:01.023Z,23.38
2022-12-31T18:35:04.361Z,26.25
2022-12-31T18:36:11.475Z,22.52
2022-12-31T18:37:19.488Z,23.92
2022-12-31T18:38:23.135Z,45.25
2022-12-31T18:39:26.893Z,50.83
2022-12-31T18:40:33.077Z,43.75
2022-12-31T18:41:45.951Z,32.25
2022-12-31T18:42:52.314Z,32.75
2022-12-31T18:43:56.293Z,36.78
2022-12-31T18:45:00.183Z,30.85
2022-12-31T18:46:04.608Z,26.92
2022-12-31T18:47:13.436Z,34.08
2022-12-31T18:48:16.025Z,23.42
2022-12-31T18:49:18.208Z,23.50
2022-12-31T18:50:21.959Z,24.70
2022-12-31T18:51:32.074Z,24.45
2022-12-31T18:52:37.005Z,21.52
2022-12-31T18:53:38.749Z,31.13
2022-12-31T18:54:48.089Z,23.52
2022-12-31T18:55:56.584Z,24.38
2022-12-31T18:57:00.689Z,17.67
2022-12-31T18:58:04.571Z,23.80
2022-12-31T18:59:07.731Z,21.38
2022-12-31T19:00:10.949Z,23.67
2022-12-31T19:01:26.664Z,25.08
2022-12-31T19:02:28.366Z,20.85
2022-12-31T19:03:33.672Z,26.45
2022-12-31T19:04:39.439Z,22.60
2022-12-31T19:05:42.633Z,24.75
2022-12-31T19:06:52.560Z,27.10
2022-12-31T19:07:54.638Z,27.58
2022-12-31T19:08:56.786Z,29.25
2022-12-31T19:09:58.824Z,35.85
2022-12-31T19:11:01.365Z,48.67
2022-12-31T19:12:05.127Z,45.95
2022-12-31T19:13:09.107Z,47.65
2022-12-31T19:14:24.269Z,37.65
2022-12-31T19:15:30.424Z,52.53
2022-12-31T19:16:34.871Z,43.58
2022-12-31T19:17:41.369Z,33.15
2022-12-31T19:18:43.152Z,37.67
2022-12-31T19:19:44.985Z,37.63
2022-12-31T19:20:47.208Z,50.65
2022-12-31T19:21:48.926Z,49.90
2022-12-31T19:22:50.779Z,44.72
2022-12-31T19:23:52.812Z,43.00
2022-12-31T19:24:54.469Z,33.15
2022-12-31T19:25:56.186Z,30.95
2022-12-31T19:26:57.895Z,34.45
2022-12-31T19:28:00.602Z,34.90
2022-12-31T19:29:03.373Z,30.17
2022-12-31T19:30:09.688Z,27.33
2022-12-31T19:31:13.963Z,36.83
2022-12-31T19:32:15.744Z,26.20
2022-12-31T19:33:17.778Z,29.52
2022-12-31T19:34:22.083Z,32.15
2022-12-31T19:35:26.848Z,34.50
2022-12-31T19:36:28.864Z,35.28
2022-12-31T19:37:30.622Z,38.35
2022-12-31T19:38:34.928Z,44.13
2022-12-31T19:39:38.816Z,41.67
2022-12-31T19:40:40.827Z,36.22
2022-12-31T19:41:45.563Z,29.85
2022-12-31T19:42:54.772Z,37.03
2022-12-31T19:44:00.000Z,35.75
2022-12-31T19:45:01.893Z,37.95
2022-12-31T19:46:04.819Z,43.42
2022-12-31T19:47:08.236Z,38.30
2022-12-31T19:48:20.045Z,59.50
2022-12-31T19:49:21.835Z,51.53
2022-12-31T19:50:30.101Z,42.55
2022-12-31T19:51:33.825Z,41.35
2022-12-31T19:52:39.890Z,57.85
2022-12-31T19:53:45.944Z,54.58
2022-12-31T19:54:51.069Z,36.08
2022-12-31T19:55:57.753Z,32.83
2022-12-31T19:57:00.048Z,35.28
2022-12-31T19:58:02.469Z,26.92
2022-12-31T19:59:09.103Z,23.73
2022-12-31T20:00:16.572Z,25.35
2022-12-31T20:01:23.522Z,27.35
2022-12-31T20:02:27.960Z,30.90
2022-12-31T20:03:33.164Z,26.77
2022-12-31T20:04:34.934Z,27.70
2022-12-31T20:05:39.111Z,33.80
2022-12-31T20:06:40.853Z,34.42
2022-12-31T20:07:49.188Z,38.40
2022-12-31T20:08:51.818Z,46.47
2022-12-31T20:09:53.521Z,28.75
2022-12-31T20:10:59.016Z,25.92
2022-12-31T20:12:00.771Z,30.48
2022-12-31T20:13:08.867Z,25.10
2022-12-31T20:14:11.874Z,23.13
2022-12-31T20:15:18.421Z,20.55
2022-12-31T20:16:24.438Z,26.75
2022-12-31T20:17:26.455Z,29.42
2022-12-31T20:18:33.731Z,17.60
2022-12-31T20:19:35.866Z,19.02
2022-12-31T20:20:39.982Z,14.75
2022-12-31T20:21:41.932Z,24.42
2022-12-31T20:22:43.637Z,23.63
2022-12-31T20:23:46.275Z,17.48
2022-12-31T20:24:48.028Z,14.30
2022-12-31T20:25:59.631Z,16.73
2022-12-31T20:27:02.115Z,15.98
2022-12-31T20:28:04.638Z,17.85
2022-12-31T20:29:06.332Z,11.85
2022-12-31T20:30:14.922Z,17.50
2022-12-31T20:31:25.647Z,21.98
2022-12-31T20:32:30.018Z,14.38
2022-12-31T20:33:36.125Z,16.33
2022-12-31T20:34:37.817Z,16.40
2022-12-31T20:35:39.602Z,16.38
2022-12-31T20:36:41.422Z,44.08
2022-12-31T20:37:44.505Z,27.65
2022-12-31T20:38:52.402Z,18.75
2022-12-31T20:39:57.150Z,40.30
2022-12-31T20:41:12.124Z,16.48
2022-12-31T20:42:15.922Z,32.50
2022-12-31T20:43:17.643Z,20.05
2022-12-31T20:44:19.629Z,19.83
2022-12-31T20:45:21.328Z,14.77
2022-12-31T20:46:27.849Z,24.25
2022-12-31T20:47:29.592Z,18.20
2022-12-31T20:48:34.586Z,19.17
2022-12-31T20:50:09.648Z,19.73
2022-12-31T20:50:58.612Z,29.83
2022-12-31T20:52:05.358Z,20.63
2022-12-31T20:53:09.155Z,17.63
2022-12-31T20:54:14.006Z,11.48
2022-12-31T20:55:16.900Z,12.15
2022-12-31T20:56:21.053Z,16.40
2022-12-31T20:57:28.828Z,17.70
2022-12-31T20:58:37.346Z,18.20
2022-12-31T20:59:41.275Z,12.85
2022-12-31T21:00:52.666Z,19.40
2022-12-31T21:04:02.481Z,27.80
2022-12-31T21:04:46.929Z,24.70
2022-12-31T21:05:53.849Z,18.98
2022-12-31T21:06:55.716Z,17.83
2022-12-31T21:07:57.417Z,13.45
2022-12-31T21:09:03.098Z,10.20
2022-12-31T21:10:05.336Z,10.50
2022-12-31T21:11:28.160Z,17.38
2022-12-31T21:12:44.420Z,18.33
2022-12-31T21:13:49.661Z,14.15
2022-12-31T21:14:51.411Z,13.07
2022-12-31T21:15:53.944Z,17.75
2022-12-31T21:16:56.001Z,14.98
2022-12-31T21:17:59.339Z,10.50
2022-12-31T21:19:03.148Z,16.58
2022-12-31T21:20:09.691Z,11.93
2022-12-31T21:21:13.999Z,16.17
2022-12-31T21:22:15.796Z,15.63
2022-12-31T21:23:19.401Z,13.43
2022-12-31T21:24:24.126Z,13.38
2022-12-31T21:25:30.557Z,12.40
2022-12-31T21:26:34.981Z,14.30
2022-12-31T21:27:41.900Z,15.68
2022-12-31T21:28:43.680Z,10.18
2022-12-31T21:30:17.182Z,14.02
2022-12-31T21:31:12.640Z,11.65
2022-12-31T21:32:14.542Z,12.60
2022-12-31T21:33:16.485Z,15.48
2022-12-31T21:34:18.200Z,14.48
2022-12-31T21:36:45.808Z,14.48
2022-12-31T21:37:58.216Z,12.38
2022-12-31T21:39:04.673Z,10.02
2022-12-31T21:40:12.344Z,14.73
2022-12-31T21:41:35.355Z,9.60
2022-12-31T21:42:37.194Z,11.45
2022-12-31T21:43:38.872Z,11.02
2022-12-31T21:44:42.695Z,13.35
2022-12-31T21:45:45.035Z,13.48
2022-12-31T21:47:45.661Z,12.05
2022-12-31T21:48:45.591Z,11.20
2022-12-31T21:49:49.980Z,10.38
2022-12-31T21:50:56.580Z,12.52
2022-12-31T21:52:17.239Z,12.10
2022-12-31T21:53:25.388Z,14.85
2022-12-31T21:54:48.651Z,15.82
2022-12-31T21:56:08.573Z,9.25
2022-12-31T21:57:10.436Z,8.60
2022-12-31T21:58:28.346Z,8.35
2022-12-31T22:00:03.194Z,12.82
2022-12-31T22:01:38.154Z,15.73
2022-12-31T22:03:00.267Z,14.00
2022-12-31T22:04:02.870Z,9.32
2022-12-31T22:05:17.428Z,11.07
2022-12-31T22:06:23.008Z,15.00
2022-12-31T22:07:26.732Z,18.85
2022-12-31T22:08:29.998Z,15.63
2022-12-31T22:09:31.623Z,11.43
2022-12-31T22:10:37.130Z,10.95
2022-12-31T22:11:40.149Z,12.10
2022-12-31T22:12:41.824Z,13.93
2022-12-31T22:13:44.055Z,13.30
2022-12-31T22:15:14.654Z,15.50
2022-12-31T22:16:08.410Z,13.18
2022-12-31T22:17:11.821Z,10.18
2022-12-31T22:18:16.856Z,13.23
2022-12-31T22:19:18.550Z,10.45
2022-12-31T22:20:29.524Z,13.68
2022-12-31T22:21:34.573Z,10.98
2022-12-31T22:22:42.409Z,10.70
2022-12-31T22:23:49.234Z,18.33
2022-12-31T22:24:53.143Z,11.43
2022-12-31T22:25:54.756Z,13.57
2022-12-31T22:27:00.464Z,13.93
2022-12-31T22:28:39.463Z,16.10
2022-12-31T22:29:44.024Z,16.35
2022-12-31T22:30:48.567Z,16.65
2022-12-31T22:31:57.987Z,13.30
2022-12-31T22:33:02.736Z,17.38
2022-12-31T22:34:06.509Z,11.55
2022-12-31T22:35:12.592Z,8.70
2022-12-31T22:36:20.235Z,13.57
2022-12-31T22:38:46.323Z,14.85
2022-12-31T22:39:50.102Z,11.27
2022-12-31T22:41:01.075Z,18.58
2022-12-31T22:42:05.341Z,17.23
2022-12-31T22:43:06.999Z,24.00
2022-12-31T22:44:11.040Z,17.15
2022-12-31T22:45:12.732Z,12.75
2022-12-31T22:46:25.093Z,20.38
2022-12-31T22:47:29.013Z,16.00
2022-12-31T22:48:32.979Z,15.65
2022-12-31T22:49:34.669Z,10.25
2022-12-31T22:50:38.838Z,15.35
2022-12-31T22:51:56.758Z,20.02
2022-12-31T22:53:03.697Z,19.48
2022-12-31T22:54:05.427Z,13.77
2022-12-31T22:55:07.938Z,13.50
2022-12-31T22:56:11.876Z,14.65
2022-12-31T22:57:20.309Z,17.02
2022-12-31T22:58:25.393Z,14.30
2022-12-31T22:59:27.598Z,17.92
2022-12-31T23:00:40.422Z,15.63
2022-12-31T23:01:42.071Z,19.80
2022-12-31T23:02:46.126Z,13.38
2022-12-31T23:03:49.747Z,24.60
2022-12-31T23:04:53.685Z,42.25
2022-12-31T23:06:18.181Z,61.35
2022-12-31T23:07:24.726Z,63.17
2022-12-31T23:08:26.626Z,155.55
2022-12-31T23:09:46.863Z,76.55
2022-12-31T23:11:05.919Z,67.03
2022-12-31T23:12:10.376Z,292.05
2022-12-31T23:13:31.105Z,128.65
2022-12-31T23:14:51.778Z,68.40
2022-12-31T23:16:16.246Z,57.25
2022-12-31T23:17:39.685Z,57.50
2022-12-31T23:19:05.272Z,58.60
2022-12-31T23:20:40.421Z,42.58
2022-12-31T23:22:00.924Z,45.05
2022-12-31T23:23:11.778Z,49.65
2022-12-31T23:24:22.717Z,52.28
2022-12-31T23:25:27.899Z,41.35
2022-12-31T23:26:29.539Z,33.10
2022-12-31T23:27:31.419Z,31.38
2022-12-31T23:28:35.694Z,45.90
2022-12-31T23:29:46.730Z,39.92
2022-12-31T23:30:51.415Z,31.05
2022-12-31T23:31:58.119Z,28.77
2022-12-31T23:33:00.089Z,36.13
2022-12-31T23:34:04.770Z,21.33
2022-12-31T23:35:10.150Z,21.48
2022-12-31T23:36:11.956Z,29.33
2022-12-31T23:37:16.864Z,22.52
2022-12-31T23:38:21.047Z,28.63
2022-12-31T23:39:25.048Z,20.55
2022-12-31T23:40:37.071Z,24.90
2022-12-31T23:41:41.838Z,26.70
2022-12-31T23:42:44.812Z,23.13
2022-12-31T23:43:51.327Z,18.83
2022-12-31T23:44:55.119Z,24.98
2022-12-31T23:45:59.086Z,21.13
2022-12-31T23:47:04.594Z,20.48
2022-12-31T23:48:06.719Z,22.73
2022-12-31T23:49:08.428Z,23.38
2022-12-31T23:50:14.834Z,13.25
2022-12-31T23:51:16.544Z,21.02
2022-12-31T23:52:24.986Z,22.55
2022-12-31T23:53:26.670Z,22.65
2022-12-31T23:54:30.932Z,22.25
2022-12-31T23:55:35.755Z,19.02
2022-12-31T23:56:40.716Z,20.83
2022-12-31T23:57:45.020Z,30.20
2022-12-31T23:58:48.976Z,17.35
2022-12-31T23:59:52.827Z,21.65
